createdAt,value
2018-12-05T00:01:41.932Z,3.47
2018-12-05T00:04:11.162Z,4.83
2018-12-05T00:06:40.360Z,12.90
2018-12-05T00:11:49.088Z,4.10
2018-12-05T00:14:18.204Z,3.70
2018-12-05T00:16:47.350Z,8.63
2018-12-05T00:19:16.592Z,11.17
2018-12-05T00:21:45.805Z,9.57
2018-12-05T00:24:16.365Z,11.47
2018-12-05T00:26:45.560Z,8.27
2018-12-05T00:29:14.797Z,9.80
2018-12-05T00:34:23.036Z,7.10
2018-12-05T00:36:52.156Z,4.77
2018-12-05T00:39:22.032Z,8.48
2018-12-05T00:44:31.192Z,10.13
2018-12-05T00:47:00.413Z,7.50
2018-12-05T00:52:08.824Z,8.60
2018-12-05T00:54:37.943Z,11.35
2018-12-05T00:57:07.080Z,7.85
2018-12-05T00:59:36.262Z,7.80
2018-12-05T01:02:05.843Z,18.73
2018-12-05T01:04:34.980Z,8.33
2018-12-05T01:09:43.040Z,9.17
2018-12-05T01:14:59.173Z,7.77
2018-12-05T01:17:28.496Z,9.80
2018-12-05T01:19:57.598Z,16.60
2018-12-05T01:22:26.980Z,8.25
2018-12-05T01:24:56.175Z,7.27
2018-12-05T01:27:25.565Z,7.20
2018-12-05T01:29:54.669Z,7.80
2018-12-05T01:32:23.780Z,14.03
2018-12-05T01:34:52.968Z,11.07
2018-12-05T01:37:22.688Z,6.70
2018-12-05T01:39:52.777Z,9.25
2018-12-05T01:42:22.929Z,11.30
2018-12-05T01:44:57.768Z,6.95
2018-12-05T01:47:26.909Z,10.17
2018-12-05T01:49:56.105Z,9.20
2018-12-05T01:55:03.526Z,11.57
2018-12-05T01:57:32.661Z,16.80
2018-12-05T02:00:01.777Z,15.30
2018-12-05T02:02:30.865Z,10.20
2018-12-05T02:05:00.125Z,15.93
2018-12-05T02:07:29.308Z,14.20
2018-12-05T02:09:58.665Z,13.47
2018-12-05T02:12:27.829Z,17.17
2018-12-05T02:14:56.930Z,15.30
2018-12-05T02:17:27.125Z,12.63
2018-12-05T02:19:56.257Z,15.10
2018-12-05T02:22:25.423Z,12.47
2018-12-05T02:24:55.094Z,11.73
2018-12-05T02:27:24.267Z,13.20
2018-12-05T02:32:37.014Z,20.67
2018-12-05T02:35:06.454Z,14.63
2018-12-05T02:37:35.648Z,14.60
2018-12-05T02:40:05.680Z,11.50
2018-12-05T02:42:34.758Z,19.77
2018-12-05T02:45:03.977Z,20.13
2018-12-05T02:47:33.196Z,10.43
2018-12-05T02:52:40.978Z,19.63
2018-12-05T02:57:49.362Z,25.10
2018-12-05T03:00:20.688Z,17.97
2018-12-05T03:05:28.996Z,17.87
2018-12-05T03:10:37.341Z,22.27
2018-12-05T03:15:45.573Z,24.80
2018-12-05T03:18:14.809Z,19.83
2018-12-05T03:20:44.059Z,16.20
2018-12-05T03:23:13.315Z,20.17
2018-12-05T03:25:43.680Z,23.07
2018-12-05T03:28:12.846Z,16.90
2018-12-05T03:33:21.216Z,18.40
2018-12-05T03:35:50.352Z,17.48
2018-12-05T03:38:19.518Z,17.90
2018-12-05T03:40:48.746Z,16.53
2018-12-05T03:43:19.156Z,22.47
2018-12-05T03:48:27.366Z,23.27
2018-12-05T03:53:34.773Z,17.23
2018-12-05T03:56:04.106Z,15.77
2018-12-05T03:58:33.252Z,17.70
2018-12-05T04:01:02.437Z,16.83
2018-12-05T04:03:31.597Z,19.40
2018-12-05T04:06:00.634Z,20.80
2018-12-05T04:08:29.720Z,17.62
2018-12-05T04:10:58.968Z,14.90
2018-12-05T04:13:28.120Z,17.67
2018-12-05T04:15:58.674Z,15.00
2018-12-05T04:18:27.910Z,14.93
2018-12-05T04:23:36.216Z,15.20
2018-12-05T04:26:05.615Z,16.03
2018-12-05T04:28:34.773Z,11.77
2018-12-05T04:31:03.860Z,19.73
2018-12-05T04:33:33.079Z,14.60
2018-12-05T04:36:02.290Z,14.47
2018-12-05T04:38:31.624Z,13.33
2018-12-05T04:43:39.937Z,11.77
2018-12-05T04:46:09.144Z,16.57
2018-12-05T04:48:38.304Z,12.82
2018-12-05T04:51:07.444Z,17.90
2018-12-05T04:53:36.537Z,12.47
2018-12-05T04:56:05.730Z,10.00
2018-12-05T04:58:36.230Z,13.07
2018-12-05T05:01:05.476Z,15.72
2018-12-05T05:06:13.780Z,16.67
2018-12-05T05:08:42.954Z,12.23
2018-12-05T05:11:12.350Z,8.33
2018-12-05T05:13:41.651Z,18.97
2018-12-05T05:16:10.807Z,9.07
2018-12-05T05:18:40.011Z,9.68
2018-12-05T05:21:09.209Z,13.23
2018-12-05T05:23:39.897Z,7.83
2018-12-05T05:26:09.053Z,10.83
2018-12-05T05:28:38.223Z,13.22
2018-12-05T05:31:07.395Z,12.10
2018-12-05T05:33:36.600Z,15.23
2018-12-05T05:36:05.781Z,15.00
2018-12-05T05:38:34.939Z,18.50
2018-12-05T05:41:04.079Z,15.43
2018-12-05T05:43:33.224Z,13.13
2018-12-05T05:48:41.565Z,11.37
2018-12-05T05:51:10.784Z,12.17
2018-12-05T05:53:39.991Z,13.40
2018-12-05T05:56:10.266Z,13.90
2018-12-05T05:58:39.372Z,16.40
2018-12-05T06:01:08.561Z,15.60
2018-12-05T06:03:37.741Z,14.97
2018-12-05T06:06:06.931Z,34.00
2018-12-05T06:08:36.061Z,15.40
2018-12-05T06:11:05.382Z,18.70
2018-12-05T06:16:13.629Z,24.53
2018-12-05T06:21:23.330Z,26.47
2018-12-05T06:23:52.563Z,15.50
2018-12-05T06:26:21.729Z,30.07
2018-12-05T06:28:50.852Z,20.07
2018-12-05T06:31:19.976Z,21.03
2018-12-05T06:36:28.345Z,16.50
2018-12-05T06:38:58.720Z,23.97
2018-12-05T06:41:28.775Z,23.30
2018-12-05T06:43:57.920Z,22.47
2018-12-05T06:46:27.102Z,18.80
2018-12-05T06:48:56.740Z,20.08
2018-12-05T06:51:28.010Z,16.75
2018-12-05T06:53:57.136Z,23.60
2018-12-05T06:56:27.261Z,18.00
2018-12-05T06:58:57.000Z,20.75
2018-12-05T07:01:27.088Z,19.00
2018-12-05T07:06:35.351Z,31.77
2018-12-05T07:11:48.032Z,22.57
2018-12-05T07:16:56.885Z,24.03
2018-12-05T07:19:27.173Z,26.10
2018-12-05T07:21:57.329Z,25.50
2018-12-05T07:24:27.746Z,34.50
2018-12-05T07:29:36.049Z,38.93
2018-12-05T07:32:05.232Z,27.50
2018-12-05T07:37:13.846Z,32.30
2018-12-05T07:39:42.988Z,24.67
2018-12-05T07:42:12.165Z,23.07
2018-12-05T07:44:41.312Z,26.02
2018-12-05T07:47:10.672Z,20.80
2018-12-05T07:52:18.192Z,23.70
2018-12-05T07:54:47.370Z,35.30
2018-12-05T07:59:55.240Z,27.60
2018-12-05T08:02:24.340Z,22.47
2018-12-05T08:04:53.540Z,24.27
2018-12-05T08:07:22.748Z,25.43
2018-12-05T08:09:52.117Z,28.73
2018-12-05T08:12:22.436Z,20.97
2018-12-05T08:14:51.776Z,31.90
2018-12-05T08:17:20.961Z,25.85
2018-12-05T08:19:50.040Z,27.10
2018-12-05T08:22:19.232Z,28.37
2018-12-05T08:24:48.428Z,26.90
2018-12-05T08:27:18.959Z,41.20
2018-12-05T08:29:48.221Z,30.00
2018-12-05T08:32:17.945Z,29.73
2018-12-05T08:34:47.197Z,22.42
2018-12-05T08:37:16.341Z,29.13
2018-12-05T08:39:45.502Z,26.67
2018-12-05T08:42:14.686Z,23.00
2018-12-05T08:44:43.929Z,27.48
2018-12-05T08:49:50.894Z,20.67
2018-12-05T08:52:20.047Z,26.20
2018-12-05T08:57:28.426Z,30.70
2018-12-05T08:59:58.572Z,26.04
2018-12-05T09:02:28.629Z,31.24
2018-12-05T09:05:00.218Z,25.05
2018-12-05T09:07:29.394Z,22.67
2018-12-05T09:12:44.552Z,24.27
2018-12-05T09:15:13.952Z,22.58
2018-12-05T09:17:43.097Z,21.35
2018-12-05T09:20:12.312Z,29.40
2018-12-05T09:22:41.804Z,21.85
2018-12-05T09:25:11.072Z,25.67
2018-12-05T09:27:40.293Z,27.67
2018-12-05T09:30:09.750Z,18.93
2018-12-05T09:32:38.923Z,26.07
2018-12-05T09:35:08.362Z,20.50
2018-12-05T09:37:37.715Z,21.20
2018-12-05T09:40:07.712Z,15.50
2018-12-05T09:42:36.900Z,18.77
2018-12-05T09:45:10.416Z,19.60
2018-12-05T09:50:18.826Z,18.70
2018-12-05T09:55:27.150Z,16.80
2018-12-05T09:57:56.370Z,17.42
2018-12-05T10:03:04.622Z,19.27
2018-12-05T10:05:33.733Z,18.00
2018-12-05T10:08:03.104Z,14.73
2018-12-05T10:10:32.475Z,17.47
2018-12-05T10:13:01.666Z,16.10
2018-12-05T10:15:31.581Z,19.73
2018-12-05T10:18:00.724Z,15.10
2018-12-05T10:20:29.876Z,21.97
2018-12-05T10:25:42.197Z,18.83
2018-12-05T10:30:50.524Z,18.67
2018-12-05T10:33:21.033Z,17.00
2018-12-05T10:35:50.204Z,16.83
2018-12-05T10:40:58.579Z,19.03
2018-12-05T10:43:27.714Z,18.80
2018-12-05T10:45:56.925Z,16.30
2018-12-05T10:48:26.168Z,24.97
2018-12-05T10:50:55.312Z,17.37
2018-12-05T10:56:02.592Z,17.50
2018-12-05T10:58:31.734Z,17.73
2018-12-05T11:01:06.229Z,20.33
2018-12-05T11:03:36.173Z,15.50
2018-12-05T11:06:11.646Z,24.80
2018-12-05T11:08:46.093Z,17.93
2018-12-05T11:11:21.122Z,18.27
2018-12-05T11:13:55.470Z,12.90
2018-12-05T11:16:29.893Z,20.27
2018-12-05T11:19:04.404Z,16.33
2018-12-05T11:21:38.907Z,13.50
2018-12-05T11:24:13.580Z,17.17
2018-12-05T11:26:42.863Z,15.30
2018-12-05T11:29:11.922Z,12.00
2018-12-05T11:31:41.117Z,15.88
2018-12-05T11:34:10.236Z,18.73
2018-12-05T11:36:39.415Z,14.30
2018-12-05T11:39:09.235Z,19.37
2018-12-05T11:41:39.628Z,16.47
2018-12-05T11:46:48.634Z,13.00
2018-12-05T11:51:56.089Z,14.20
2018-12-05T11:54:25.404Z,14.35
2018-12-05T11:56:54.697Z,15.17
2018-12-05T11:59:23.857Z,17.50
2018-12-05T12:01:53.069Z,15.57
2018-12-05T12:07:01.413Z,17.67
2018-12-05T12:12:17.053Z,19.13
2018-12-05T12:14:46.392Z,14.07
2018-12-05T12:17:16.941Z,17.02
2018-12-05T12:19:46.220Z,18.98
2018-12-05T12:22:15.348Z,17.33
2018-12-05T12:24:44.996Z,19.70
2018-12-05T12:27:14.264Z,17.87
2018-12-05T12:29:43.365Z,18.85
2018-12-05T12:32:12.537Z,23.20
2018-12-05T12:37:25.612Z,22.20
2018-12-05T12:42:33.867Z,20.40
2018-12-05T12:45:04.594Z,14.13
2018-12-05T12:47:33.821Z,17.90
2018-12-05T12:50:03.055Z,17.37
2018-12-05T12:52:32.345Z,30.97
2018-12-05T12:57:40.189Z,14.50
2018-12-05T13:00:10.862Z,23.47
2018-12-05T13:02:40.009Z,22.35
2018-12-05T13:05:09.221Z,21.67
2018-12-05T13:07:38.409Z,27.13
2018-12-05T13:10:07.997Z,16.37
2018-12-05T13:12:37.247Z,18.77
2018-12-05T13:15:06.716Z,19.83
2018-12-05T13:17:35.949Z,20.77
2018-12-05T13:20:06.196Z,18.00
2018-12-05T13:22:37.324Z,17.63
2018-12-05T13:25:06.978Z,22.73
2018-12-05T13:27:36.192Z,23.87
2018-12-05T13:32:45.055Z,18.60
2018-12-05T13:35:14.385Z,21.77
2018-12-05T13:37:43.625Z,19.67
2018-12-05T13:40:12.892Z,17.07
2018-12-05T13:42:42.040Z,20.20
2018-12-05T13:45:11.349Z,18.30
2018-12-05T13:47:40.467Z,16.33
2018-12-05T13:52:48.969Z,17.07
2018-12-05T13:55:18.064Z,16.90
2018-12-05T13:57:47.220Z,16.82
2018-12-05T14:00:16.404Z,24.47
2018-12-05T14:02:45.548Z,20.12
2018-12-05T14:05:14.746Z,17.48
2018-12-05T14:07:44.080Z,16.20
2018-12-05T14:10:13.284Z,19.70
2018-12-05T14:12:42.405Z,19.52
2018-12-05T14:15:11.830Z,25.50
2018-12-05T14:17:40.900Z,19.20
2018-12-05T14:20:10.304Z,18.23
2018-12-05T14:22:39.465Z,21.00
2018-12-05T14:25:10.191Z,21.23
2018-12-05T14:27:39.237Z,18.47
2018-12-05T14:30:09.269Z,21.85
2018-12-05T14:32:38.464Z,25.83
2018-12-05T14:35:07.864Z,24.40
2018-12-05T14:37:37.069Z,21.40
2018-12-05T14:40:07.377Z,27.60
2018-12-05T14:42:36.712Z,20.47
2018-12-05T14:45:06.424Z,18.87
2018-12-05T14:50:13.894Z,23.43
2018-12-05T14:52:43.036Z,22.90
2018-12-05T14:55:12.237Z,26.70
2018-12-05T14:57:41.364Z,23.83
2018-12-05T15:02:49.862Z,26.40
2018-12-05T15:05:19.155Z,24.43
2018-12-05T15:07:48.459Z,22.87
2018-12-05T15:10:17.993Z,23.40
2018-12-05T15:12:50.576Z,27.30
2018-12-05T15:15:19.713Z,19.85
2018-12-05T15:17:48.861Z,21.85
2018-12-05T15:20:18.188Z,37.03
2018-12-05T15:22:47.297Z,25.60
2018-12-05T15:27:56.052Z,24.67
2018-12-05T15:30:25.116Z,32.47
2018-12-05T15:32:54.443Z,21.80
2018-12-05T15:35:23.592Z,23.20
2018-12-05T15:37:52.816Z,20.80
2018-12-05T15:40:23.096Z,20.73
2018-12-05T15:42:52.433Z,23.80
2018-12-05T15:45:21.772Z,24.77
2018-12-05T15:50:29.761Z,23.60
2018-12-05T15:52:58.825Z,25.70
2018-12-05T15:55:27.873Z,23.97
2018-12-05T15:57:57.009Z,29.77
2018-12-05T16:00:28.114Z,21.27
2018-12-05T16:02:57.856Z,22.20
2018-12-05T16:05:27.619Z,24.60
2018-12-05T16:07:56.785Z,21.80
2018-12-05T16:13:05.315Z,35.13
2018-12-05T16:18:14.437Z,26.30
2018-12-05T16:20:43.717Z,26.40
2018-12-05T16:25:52.025Z,34.63
2018-12-05T16:28:21.232Z,28.70
2018-12-05T16:33:29.834Z,32.03
2018-12-05T16:35:58.983Z,28.33
2018-12-05T16:41:07.332Z,25.97
2018-12-05T16:43:36.612Z,28.10
2018-12-05T16:46:06.132Z,32.30
2018-12-05T16:48:36.228Z,35.98
2018-12-05T16:51:06.246Z,35.63
2018-12-05T16:56:15.344Z,33.23
2018-12-05T16:58:44.377Z,29.03
2018-12-05T17:01:13.644Z,30.20
2018-12-05T17:03:42.837Z,32.70
2018-12-05T17:06:12.144Z,31.50
2018-12-05T17:08:43.197Z,34.15
2018-12-05T17:11:12.395Z,24.50
2018-12-05T17:13:42.598Z,27.17
2018-12-05T17:16:18.016Z,32.23
2018-12-05T17:18:43.317Z,31.73
2018-12-05T17:23:51.205Z,29.27
2018-12-05T17:26:21.570Z,26.23
2018-12-05T17:28:51.036Z,26.90
2018-12-05T17:33:59.349Z,27.30
2018-12-05T17:36:28.657Z,28.53
2018-12-05T17:38:59.088Z,26.87
2018-12-05T17:41:28.233Z,33.97
2018-12-05T17:43:57.327Z,32.37
2018-12-05T17:46:26.632Z,29.40
2018-12-05T17:51:34.009Z,30.60
2018-12-05T17:56:43.526Z,32.30
2018-12-05T17:59:12.611Z,35.97
2018-12-05T18:01:41.790Z,30.83
2018-12-05T18:06:50.074Z,30.60
2018-12-05T18:11:59.895Z,39.90
2018-12-05T18:14:28.983Z,30.07
2018-12-05T18:16:58.313Z,36.97
2018-12-05T18:22:07.772Z,38.53
2018-12-05T18:24:36.908Z,33.27
2018-12-05T18:27:06.216Z,37.33
2018-12-05T18:29:35.444Z,40.00
2018-12-05T18:32:04.741Z,40.45
2018-12-05T18:34:33.837Z,38.33
2018-12-05T18:39:42.199Z,36.97
2018-12-05T18:42:11.441Z,36.53
2018-12-05T18:44:40.544Z,38.40
2018-12-05T18:47:09.660Z,38.28
2018-12-05T18:49:38.799Z,38.93
2018-12-05T18:54:48.177Z,31.07
2018-12-05T18:57:18.040Z,39.40
2018-12-05T18:59:47.220Z,33.30
2018-12-05T19:02:16.462Z,32.60
2018-12-05T19:04:45.727Z,33.70
2018-12-05T19:07:14.828Z,41.83
2018-12-05T19:12:23.172Z,30.57
2018-12-05T19:14:52.237Z,42.03
2018-12-05T19:17:21.352Z,33.73
2018-12-05T19:19:50.557Z,37.50
2018-12-05T19:22:19.715Z,36.20
2018-12-05T19:24:49.927Z,34.10
2018-12-05T19:27:19.088Z,35.93
2018-12-05T19:29:48.198Z,35.98
2018-12-05T19:32:18.144Z,36.75
2018-12-05T19:37:26.779Z,36.43
2018-12-05T19:42:35.081Z,37.23
2018-12-05T19:45:04.672Z,35.27
2018-12-05T19:50:13.395Z,33.97
2018-12-05T19:55:22.853Z,34.60
2018-12-05T19:57:52.007Z,34.85
2018-12-05T20:00:21.140Z,37.80
2018-12-05T20:02:50.372Z,36.33
2018-12-05T20:05:19.711Z,36.42
2018-12-05T20:07:48.836Z,40.03
2018-12-05T20:10:18.121Z,34.87
2018-12-05T20:12:47.288Z,33.10
2018-12-05T20:15:16.512Z,32.40
2018-12-05T20:17:45.653Z,37.87
2018-12-05T20:20:16.373Z,32.67
2018-12-05T20:22:45.612Z,30.07
2018-12-05T20:25:14.797Z,28.02
2018-12-05T20:27:43.989Z,29.83
2018-12-05T20:30:13.259Z,30.03
2018-12-05T20:32:42.374Z,41.47
2018-12-05T20:35:11.574Z,32.00
2018-12-05T20:37:40.753Z,26.80
2018-12-05T20:40:10.658Z,27.82
2018-12-05T20:42:40.580Z,29.30
2018-12-05T20:45:10.974Z,31.50
2018-12-05T20:47:40.764Z,31.93
2018-12-05T20:50:10.781Z,36.88
2018-12-05T20:55:48.134Z,38.97
2018-12-05T20:58:17.932Z,32.00
2018-12-05T21:00:47.000Z,24.60
2018-12-05T21:05:54.952Z,37.53
2018-12-05T21:08:24.257Z,28.30
2018-12-05T21:10:53.298Z,34.00
2018-12-05T21:13:22.453Z,24.18
2018-12-05T21:15:51.544Z,27.07
2018-12-05T21:18:20.845Z,31.80
2018-12-05T21:20:49.944Z,32.38
2018-12-05T21:23:19.156Z,32.83
2018-12-05T21:28:27.556Z,29.90
2018-12-05T21:30:56.684Z,36.70
2018-12-05T21:33:25.773Z,33.63
2018-12-05T21:35:54.988Z,33.50
2018-12-05T21:38:24.047Z,27.93
2018-12-05T21:40:53.273Z,33.85
2018-12-05T21:43:22.343Z,33.00
2018-12-05T21:45:51.519Z,29.72
2018-12-05T21:48:20.557Z,31.43
2018-12-05T21:53:27.880Z,36.17
2018-12-05T21:55:57.010Z,32.88
2018-12-05T21:58:26.136Z,30.20
2018-12-05T22:00:55.272Z,35.75
2018-12-05T22:03:24.412Z,35.70
2018-12-05T22:05:53.520Z,30.37
2018-12-05T22:08:22.639Z,28.30
2018-12-05T22:10:51.894Z,30.65
2018-12-05T22:13:21.029Z,33.87
2018-12-05T22:15:50.177Z,30.33
2018-12-05T22:18:19.429Z,36.20
2018-12-05T22:20:48.536Z,44.60
2018-12-05T22:23:18.214Z,36.80
2018-12-05T22:25:48.613Z,40.70
2018-12-05T22:28:17.888Z,35.17
2018-12-05T22:30:47.027Z,31.73
2018-12-05T22:33:16.223Z,36.07
2018-12-05T22:35:45.424Z,33.87
2018-12-05T22:38:14.429Z,27.97
2018-12-05T22:40:43.649Z,24.53
2018-12-05T22:43:12.821Z,23.67
2018-12-05T22:45:42.495Z,25.32
2018-12-05T22:50:51.621Z,33.57
2018-12-05T22:53:20.752Z,25.70
2018-12-05T22:55:49.825Z,25.70
2018-12-05T22:58:19.028Z,25.40
2018-12-05T23:00:54.497Z,27.62
2018-12-05T23:03:24.876Z,24.13
2018-12-05T23:05:54.173Z,26.07
2018-12-05T23:08:23.393Z,26.97
2018-12-05T23:10:52.617Z,19.83
2018-12-05T23:13:21.976Z,23.13
2018-12-05T23:15:51.096Z,27.35
2018-12-05T23:18:20.287Z,25.33
2018-12-05T23:20:49.649Z,25.47
2018-12-05T23:23:18.832Z,27.17
2018-12-05T23:25:47.953Z,25.20
2018-12-05T23:28:18.092Z,28.60
2018-12-05T23:30:47.221Z,33.10
2018-12-05T23:33:16.367Z,32.93
2018-12-05T23:35:46.489Z,29.30
2018-12-05T23:38:15.707Z,35.37
2018-12-05T23:40:45.786Z,28.23
2018-12-05T23:43:14.908Z,40.73
2018-12-05T23:45:43.968Z,22.63
2018-12-05T23:48:14.553Z,24.45
2018-12-05T23:53:22.330Z,25.07
2018-12-05T23:55:51.508Z,24.67
2018-12-05T23:58:20.552Z,21.87
